Thu, 24 Jun 2021 16:59:10 UTC

Information for RPM xxhash-libs-0.7.3-1.fc33.x86_64.rpm

ID20813705
Namexxhash-libs
Version0.7.3
Release1.fc33
Epoch
Archx86_64
SummaryExtremely fast hash algorithm - library
DescriptionxxHash is an Extremely fast Hash algorithm, running at RAM speed limits. It successfully completes the SMHasher test suite which evaluates collision, dispersion and randomness qualities of hash functions. Code is highly portable, and hashes are identical on all platforms (little / big endian).
Build Time2020-03-06 16:25:27 GMT
Size29,880
2c02da7eb7274fc2036539453fafbddb
LicenseBSD
Buildrootf33-build-19712397-1402093
Provides
libxxhash.so.0()(64bit)
xxhash-libs = 0.7.3-1.fc33
xxhash-libs(x86-64) = 0.7.3-1.fc33
Obsoletes No Obsoletes
Conflicts No Conflicts
Requires
libc.so.6()(64bit)
libc.so.6(GLIBC_2.14)(64bit)
libc.so.6(GLIBC_2.2.5)(64bit)
libc.so.6(GLIBC_2.3.4)(64bit)
libc.so.6(GLIBC_2.4)(64bit)
rpmlib(CompressedFileNames) <= 3.0.4-1
rpmlib(FileDigests) <= 4.6.0-1
rpmlib(PayloadFilesHavePrefix) <= 4.0-1
rpmlib(PayloadIsZstd) <= 5.4.18-1
rtld(GNU_HASH)
Recommends No Recommends
Suggests No Suggests
Supplements No Supplements
Enhances No Enhances
Files
1 through 9 of 9
Name ascending sort Size
/usr/lib/.build-id0
/usr/lib/.build-id/7f0
/usr/lib/.build-id/7f/9be4639f74735a8ebc631d1bfe3a72eb87eee440
/usr/lib64/libxxhash.so.018
/usr/lib64/libxxhash.so.0.7.336,672
/usr/share/doc/xxhash-libs0
/usr/share/doc/xxhash-libs/README.md9,819
/usr/share/licenses/xxhash-libs0
/usr/share/licenses/xxhash-libs/LICENSE2,236
Component of
Page:
1 through 50 of 203490 >>>
Buildroot descending sort Created State
f33-perl-21253455-1654498 2020-06-29 06:59:53 expired
f33-build-21232220-1658531 2020-06-27 19:44:38 expired
f33-build-21232199-1658531 2020-06-27 19:40:46 expired
f33-build-21232192-1658531 2020-06-27 19:38:42 expired
f33-build-21232158-1658531 2020-06-27 19:37:15 expired
f33-build-21232141-1658531 2020-06-27 19:36:23 expired
f33-build-21232130-1658531 2020-06-27 19:32:54 expired
f33-build-21232119-1658531 2020-06-27 19:32:36 expired
f33-build-21232113-1658531 2020-06-27 19:32:03 expired
f33-build-21232089-1658531 2020-06-27 19:31:13 expired
f33-build-21232052-1658531 2020-06-27 19:17:29 expired
f33-build-21232039-1658531 2020-06-27 19:16:34 expired
eln-build-21232038-1658550 2020-06-27 19:00:27 expired
f33-build-21232024-1658531 2020-06-27 18:39:33 expired
f33-build-21232011-1658455 2020-06-27 18:25:10 expired
f33-build-side-24835-21232010-1658476 2020-06-27 18:23:10 expired
f33-build-21232007-1658455 2020-06-27 18:22:09 expired
f33-build-21232005-1658455 2020-06-27 18:21:40 expired
f33-build-21231981-1658380 2020-06-27 18:12:44 expired
f33-build-21231960-1658380 2020-06-27 18:03:24 expired
f33-build-side-24835-21231959-1658325 2020-06-27 18:03:08 expired
eln-build-21231952-1658399 2020-06-27 18:00:35 expired
f33-build-21231951-1658380 2020-06-27 18:00:15 expired
f33-build-21231942-1658305 2020-06-27 17:50:32 expired
f33-build-21231941-1658305 2020-06-27 17:50:26 expired
f33-build-21231937-1658305 2020-06-27 17:47:59 expired
f33-build-21231923-1658305 2020-06-27 17:44:17 expired
f33-build-21231921-1658305 2020-06-27 17:43:43 expired
f33-build-21231920-1658305 2020-06-27 17:43:11 expired
f33-build-21231918-1658305 2020-06-27 17:43:10 expired
f33-build-21231916-1658305 2020-06-27 17:43:00 expired
f33-build-21231914-1658305 2020-06-27 17:42:18 expired
f33-build-21231913-1658305 2020-06-27 17:42:08 expired
f33-build-21231908-1658231 2020-06-27 17:41:07 expired
f33-build-21231903-1658231 2020-06-27 17:40:43 expired
f33-build-21231875-1658231 2020-06-27 17:38:07 expired
f33-build-21231867-1658231 2020-06-27 17:35:50 expired
f33-build-21231858-1658231 2020-06-27 17:34:32 expired
f33-build-21231850-1658231 2020-06-27 17:32:05 expired
f33-build-21231815-1658156 2020-06-27 17:11:38 expired
f33-build-21231814-1658156 2020-06-27 17:11:36 expired
f33-build-21231812-1658156 2020-06-27 17:11:26 expired
f33-build-21231806-1658156 2020-06-27 17:11:14 expired
f33-build-21231801-1658156 2020-06-27 17:10:51 expired
f33-build-21231777-1658068 2020-06-27 17:01:47 expired
eln-build-21231775-1658090 2020-06-27 17:00:33 expired
f33-build-21231765-1657980 2020-06-27 16:51:40 expired
f33-build-21231750-1657980 2020-06-27 16:45:27 expired
f33-build-21231740-1657980 2020-06-27 16:39:58 expired
f33-build-21231739-1657980 2020-06-27 16:39:57 expired